createdAt,value
2023-02-11T00:04:50.062Z,41.30
2023-02-11T00:09:54.083Z,41.20
2023-02-11T00:15:00.627Z,37.20
2023-02-11T00:20:08.308Z,43.90
2023-02-11T00:25:14.001Z,46.90
2023-02-11T00:30:24.769Z,43.70
2023-02-11T00:35:30.554Z,45.80
2023-02-11T00:40:35.225Z,43.70
2023-02-11T00:45:42.356Z,41.50
2023-02-11T00:50:48.508Z,44.90
2023-02-11T00:55:52.937Z,43.50
2023-02-11T01:00:57.852Z,42.80
2023-02-11T01:06:03.792Z,43.10
2023-02-11T01:11:15.084Z,44.10
2023-02-11T01:16:23.987Z,45.00
2023-02-11T01:22:14.256Z,42.80
2023-02-11T01:27:22.110Z,46.20
2023-02-11T01:32:57.704Z,50.00
2023-02-11T01:38:24.797Z,48.00
2023-02-11T01:43:34.816Z,49.30
2023-02-11T01:48:45.793Z,44.60
2023-02-11T01:54:10.616Z,53.20
2023-02-11T01:59:24.077Z,44.70
2023-02-11T02:04:36.983Z,47.60
2023-02-11T02:21:08.523Z,44.90
2023-02-11T02:26:47.868Z,44.50
2023-02-11T02:32:50.872Z,44.60
2023-02-11T02:38:36.876Z,44.80
2023-02-11T02:43:52.418Z,40.70
2023-02-11T02:49:03.974Z,38.20
2023-02-11T02:54:59.682Z,37.30
2023-02-11T03:01:18.568Z,33.80
2023-02-11T03:07:35.234Z,37.70
2023-02-11T03:13:04.892Z,36.50
2023-02-11T03:18:12.371Z,38.70
2023-02-11T03:23:32.023Z,35.20
2023-02-11T03:28:50.376Z,40.00
2023-02-11T03:34:33.112Z,38.60
2023-02-11T03:40:02.747Z,37.20
2023-02-11T03:45:21.530Z,34.90
2023-02-11T03:50:28.679Z,37.90
2023-02-11T03:55:40.914Z,38.20
2023-02-11T04:00:45.776Z,39.00
2023-02-11T04:05:59.693Z,37.50
2023-02-11T04:11:47.864Z,43.00
2023-02-11T04:16:54.253Z,39.40
2023-02-11T04:22:06.344Z,39.50
2023-02-11T04:27:34.147Z,34.10
2023-02-11T04:32:51.379Z,36.70
2023-02-11T04:37:59.140Z,38.60
2023-02-11T04:43:05.214Z,39.40
2023-02-11T04:48:19.292Z,37.50
2023-02-11T04:53:26.632Z,37.10
2023-02-11T04:58:33.161Z,36.50
2023-02-11T05:03:55.294Z,38.30
2023-02-11T05:09:20.248Z,32.10
2023-02-11T05:14:28.126Z,38.20
2023-02-11T05:19:46.904Z,38.70
2023-02-11T05:24:51.432Z,36.40
2023-02-11T05:29:59.655Z,34.90
2023-02-11T05:35:39.636Z,37.80
2023-02-11T05:40:44.816Z,35.40
2023-02-11T05:45:50.642Z,35.20
2023-02-11T05:50:58.269Z,33.90
2023-02-11T05:56:33.087Z,32.90
2023-02-11T06:03:01.467Z,32.60
2023-02-11T06:08:43.981Z,37.30
2023-02-11T06:14:17.741Z,32.50
2023-02-11T06:19:24.598Z,32.30
2023-02-11T06:24:51.306Z,32.80
2023-02-11T06:30:01.701Z,37.20
2023-02-11T06:35:12.137Z,40.50
2023-02-11T06:40:17.274Z,32.50
2023-02-11T06:45:25.464Z,35.50
2023-02-11T06:51:22.304Z,36.20
2023-02-11T06:57:49.290Z,38.50
2023-02-11T07:03:39.810Z,37.10
2023-02-11T07:09:16.807Z,34.30
2023-02-11T07:14:41.825Z,37.70
2023-02-11T07:20:08.028Z,41.30
2023-02-11T07:25:45.834Z,31.30
2023-02-11T07:30:50.752Z,37.80
2023-02-11T07:36:10.948Z,36.30
2023-02-11T07:41:37.650Z,34.10
2023-02-11T07:47:27.315Z,34.80
2023-02-11T07:53:41.454Z,35.60
2023-02-11T08:00:03.919Z,35.30
2023-02-11T08:06:33.221Z,33.60
2023-02-11T08:12:58.328Z,37.60
2023-02-11T08:19:01.914Z,32.40
2023-02-11T08:24:09.410Z,30.60
2023-02-11T08:29:27.145Z,32.70
2023-02-11T08:34:31.438Z,35.00
2023-02-11T08:39:40.521Z,35.00
2023-02-11T08:44:56.269Z,32.60
2023-02-11T08:51:05.012Z,36.20
2023-02-11T08:56:52.717Z,40.10
2023-02-11T09:02:05.232Z,34.80
2023-02-11T09:07:46.477Z,36.80
2023-02-11T09:13:33.690Z,34.90
2023-02-11T09:19:10.771Z,39.70
2023-02-11T09:24:43.891Z,36.00
2023-02-11T09:30:30.547Z,35.10
2023-02-11T09:36:27.156Z,33.10
2023-02-11T09:42:34.225Z,36.00
2023-02-11T09:48:00.152Z,35.80
2023-02-11T09:53:49.194Z,32.80
2023-02-11T09:59:21.018Z,31.50
2023-02-11T10:05:34.625Z,30.70
2023-02-11T10:11:59.703Z,30.70
2023-02-11T10:18:18.807Z,31.30
2023-02-11T10:23:44.855Z,24.80
2023-02-11T10:28:56.681Z,28.50
2023-02-11T10:34:29.683Z,29.50
2023-02-11T10:40:20.984Z,27.80
2023-02-11T10:48:18.963Z,29.60
2023-02-11T11:00:19.499Z,31.60
2023-02-11T11:06:17.485Z,34.10
2023-02-11T11:11:52.360Z,36.90
2023-02-11T11:16:57.647Z,33.00
2023-02-11T11:22:59.484Z,34.00
2023-02-11T11:28:29.966Z,31.30
2023-02-11T11:33:38.624Z,31.50
2023-02-11T11:39:16.809Z,34.80
2023-02-11T11:45:18.798Z,33.90
2023-02-11T11:51:41.018Z,33.50
2023-02-11T11:57:36.068Z,38.50
2023-02-11T12:04:08.237Z,30.80
2023-02-11T12:10:22.978Z,32.60
2023-02-11T12:16:27.348Z,35.90
2023-02-11T12:22:40.856Z,31.50
2023-02-11T12:27:54.645Z,32.80
2023-02-11T12:34:04.656Z,32.50
2023-02-11T12:39:54.990Z,34.20
2023-02-11T12:47:33.521Z,30.50
2023-02-11T12:53:31.381Z,34.90
2023-02-11T12:58:45.415Z,28.50
2023-02-11T13:04:19.221Z,28.50
2023-02-11T13:15:55.717Z,28.30
2023-02-11T13:28:19.950Z,34.00
2023-02-11T13:34:21.664Z,29.40
2023-02-11T13:46:37.111Z,33.00
2023-02-11T13:52:45.043Z,33.10
2023-02-11T13:59:15.357Z,30.40
2023-02-11T14:05:45.098Z,33.00
2023-02-11T14:12:28.231Z,32.60
2023-02-11T14:19:02.171Z,32.00
2023-02-11T14:25:31.342Z,28.60
2023-02-11T14:32:15.295Z,31.90
2023-02-11T14:39:00.273Z,33.50
2023-02-11T14:45:16.744Z,26.10
2023-02-11T14:51:46.527Z,32.70
2023-02-11T14:58:17.322Z,32.30
2023-02-11T15:04:46.715Z,34.40
2023-02-11T15:11:06.345Z,36.80
2023-02-11T15:17:35.217Z,42.40
2023-02-11T15:24:02.675Z,42.40
2023-02-11T15:30:32.373Z,36.90
2023-02-11T15:36:58.651Z,34.00
2023-02-11T15:43:27.544Z,37.50
2023-02-11T15:49:55.535Z,33.10
2023-02-11T15:56:07.879Z,39.50
2023-02-11T16:02:38.487Z,33.30
2023-02-11T16:09:04.506Z,44.40
2023-02-11T16:15:45.125Z,31.30
2023-02-11T16:22:15.261Z,36.20
2023-02-11T16:28:44.081Z,31.00
2023-02-11T16:35:21.694Z,32.30
2023-02-11T16:41:31.553Z,31.50
2023-02-11T16:48:01.747Z,31.20
2023-02-11T16:54:27.484Z,29.80
2023-02-11T17:00:57.322Z,30.50
2023-02-11T17:07:18.130Z,33.20
2023-02-11T17:13:41.111Z,32.10
2023-02-11T17:20:07.435Z,36.00
2023-02-11T17:26:37.362Z,32.10
2023-02-11T17:33:04.913Z,34.50
2023-02-11T17:39:27.318Z,36.80
2023-02-11T17:52:38.344Z,34.00
2023-02-11T17:59:05.566Z,32.30
2023-02-11T18:05:33.273Z,25.10
2023-02-11T18:12:03.421Z,24.50
2023-02-11T18:18:13.670Z,30.00
2023-02-11T18:30:48.477Z,35.90
2023-02-11T18:37:19.980Z,36.80
2023-02-11T18:43:39.979Z,30.80
2023-02-11T18:49:37.804Z,30.20
2023-02-11T18:56:12.167Z,31.70
2023-02-11T19:02:43.066Z,25.60
2023-02-11T19:09:16.120Z,29.50
2023-02-11T19:15:46.687Z,31.30
2023-02-11T19:22:13.857Z,30.10
2023-02-11T19:28:44.718Z,33.10
2023-02-11T19:34:21.817Z,29.80
2023-02-11T19:40:50.680Z,29.10
2023-02-11T19:47:21.849Z,30.70
2023-02-11T19:53:54.519Z,32.80
2023-02-11T20:00:17.118Z,39.60
2023-02-11T20:06:49.088Z,30.50
2023-02-11T20:20:13.404Z,33.30
2023-02-11T20:26:17.550Z,33.40
2023-02-11T20:32:45.812Z,32.10
2023-02-11T20:39:14.925Z,32.20
2023-02-11T20:45:44.814Z,33.20
2023-02-11T20:52:12.619Z,28.30
2023-02-11T20:58:51.438Z,32.60
2023-02-11T21:05:23.564Z,28.40
2023-02-11T21:11:52.263Z,31.60
2023-02-11T21:18:19.492Z,32.70
2023-02-11T21:24:39.911Z,23.60
2023-02-11T21:31:08.374Z,32.30
2023-02-11T21:37:39.625Z,36.50
2023-02-11T21:44:06.114Z,33.90
2023-02-11T21:50:39.004Z,35.40
2023-02-11T21:57:04.260Z,40.10
2023-02-11T22:03:28.662Z,37.10
2023-02-11T22:10:29.441Z,35.20
2023-02-11T22:16:58.703Z,34.70
2023-02-11T22:23:17.547Z,41.80
2023-02-11T22:29:44.490Z,38.40
2023-02-11T22:35:57.473Z,32.50
2023-02-11T22:42:24.052Z,37.70
2023-02-11T22:48:48.164Z,36.40
2023-02-11T22:55:13.332Z,31.60
2023-02-11T23:01:13.953Z,37.80
2023-02-11T23:07:31.840Z,36.60
2023-02-11T23:13:40.274Z,35.70
2023-02-11T23:20:04.997Z,38.20
2023-02-11T23:26:15.076Z,35.90
2023-02-11T23:32:40.375Z,35.00
2023-02-11T23:39:08.901Z,33.60
2023-02-11T23:45:28.568Z,39.20
2023-02-11T23:51:54.751Z,34.60
2023-02-11T23:58:00.449Z,36.70
